Terminal Aerodrome Forecast
Issued by NWS

Home | Current Version | Previous Version | Text Only | Print | Product List | Glossary On
Versions: 1 2 3 4 5 6 7 8 9 10 11 12 13 14 15 16
533
FTUS43 KAPX 270527
TAFAPN
TAF
KAPN 270527Z 2706/2806 00000KT P6SM VCSH BKN200
     FM270800 00000KT P6SM SCT200
     FM271200 28005KT P6SM SCT150
     FM271900 34007KT P6SM SCT060
     FM272100 01007KT P6SM VCSH BKN060
     FM280200 33004KT P6SM BKN100=

USA.gov is the U.S. government's official web portal to all federal, state and local government web resources and services.